Time;durP1;ratioP1;P1;durP2;ratioP2;P2;SDS_P1;SDS_P2;PMS_P1;PMS_P2;Temp;Humidity;BMP_temperature;BMP_pressure;BME280_temperature;BME280_humidity;BME280_pressure;Samples;Min_cycle;Max_cycle;Signal;HPM_P1;HPM_P2
2022/07/20 00:00:04;;;;;;;3.60;3.30;;;;;;;;;;5117978;28;20218;-64
2022/07/20 00:02:34;;;;;;;3.63;3.33;;;;;;;;;;5118668;28;20199;-63
2022/07/20 00:05:02;;;;;;;3.55;3.25;;;;;;;;;;5118424;28;20207;-63
2022/07/20 00:07:42;;;;;;;3.25;3.05;;;;;;;;;;5118141;28;20199;-63
2022/07/20 00:12:55;;;;;;;3.80;3.42;;;;;;;;;;5117670;28;20541;-63
2022/07/20 00:15:25;;;;;;;4.50;3.75;;;;;;;;;;5117457;28;20213;-64
2022/07/20 00:17:54;;;;;;;3.40;3.15;;;;;;;;;;5116483;28;20206;-64
2022/07/20 00:20:21;;;;;;;4.25;3.55;;;;;;;;;;5118331;28;20286;-65
2022/07/20 00:22:49;;;;;;;3.58;3.25;;;;;;;;;;5101284;28;20237;-64
2022/07/20 00:25:16;;;;;;;3.42;3.22;;;;;;;;;;5117474;28;20210;-64
2022/07/20 00:27:44;;;;;;;3.40;3.10;;;;;;;;;;5117139;28;20521;-64
2022/07/20 00:30:12;;;;;;;3.35;3.13;;;;;;;;;;5117706;28;20480;-64
2022/07/20 00:32:40;;;;;;;3.85;3.55;;;;;;;;;;5117174;28;20195;-64
2022/07/20 00:35:10;;;;;;;3.70;3.40;;;;;;;;;;5117736;28;20594;-64
2022/07/20 00:37:38;;;;;;;3.67;3.25;;;;;;;;;;5117631;28;20207;-64
2022/07/20 00:40:07;;;;;;;3.70;3.40;;;;;;;;;;5118049;28;20231;-64
2022/07/20 00:42:35;;;;;;;3.85;3.55;;;;;;;;;;5118118;28;20198;-64
2022/07/20 00:45:02;;;;;;;3.50;3.30;;;;;;;;;;5117772;28;20207;-64
2022/07/20 00:47:30;;;;;;;3.70;3.40;;;;;;;;;;5118071;28;20206;-64
2022/07/20 00:49:57;;;;;;;3.83;3.50;;;;;;;;;;5118029;28;20203;-65
2022/07/20 00:52:26;;;;;;;3.72;3.42;;;;;;;;;;5117310;28;20278;-64
2022/07/20 00:54:54;;;;;;;3.78;3.58;;;;;;;;;;5118680;28;20483;-64
2022/07/20 00:57:22;;;;;;;3.70;3.40;;;;;;;;;;5117766;28;20199;-64
2022/07/20 00:59:49;;;;;;;3.80;3.50;;;;;;;;;;5117077;28;20232;-65
2022/07/20 01:02:16;;;;;;;3.75;3.45;;;;;;;;;;5118174;28;20511;-65
2022/07/20 01:04:44;;;;;;;3.55;3.25;;;;;;;;;;5117563;28;20198;-64
2022/07/20 01:07:11;;;;;;;3.40;3.10;;;;;;;;;;5117615;28;20199;-64
2022/07/20 01:09:40;;;;;;;3.88;3.47;;;;;;;;;;5117963;28;20191;-68
2022/07/20 01:12:09;;;;;;;4.07;3.70;;;;;;;;;;5117865;28;20286;-64
2022/07/20 01:14:37;;;;;;;3.70;3.40;;;;;;;;;;5118133;28;20195;-64
2022/07/20 01:17:05;;;;;;;3.47;3.17;;;;;;;;;;5117691;28;20210;-64
2022/07/20 01:19:32;;;;;;;3.80;3.50;;;;;;;;;;5116877;28;20249;-64
2022/07/20 01:22:01;;;;;;;3.40;3.20;;;;;;;;;;5116863;28;20199;-64
2022/07/20 01:24:29;;;;;;;3.65;3.45;;;;;;;;;;5117305;28;20266;-64
2022/07/20 01:26:57;;;;;;;3.80;3.50;;;;;;;;;;5117513;28;20213;-64
2022/07/20 01:29:24;;;;;;;3.88;3.55;;;;;;;;;;5141682;27;20194;-64
2022/07/20 01:31:51;;;;;;;3.60;3.30;;;;;;;;;;5141213;27;20586;-64
2022/07/20 01:34:20;;;;;;;3.75;3.45;;;;;;;;;;5141797;27;20281;-64
2022/07/20 01:36:47;;;;;;;3.47;3.28;;;;;;;;;;5141520;27;20209;-64
2022/07/20 01:39:16;;;;;;;3.65;3.35;;;;;;;;;;5121444;28;20222;-64
2022/07/20 01:41:43;;;;;;;3.70;3.40;;;;;;;;;;5122841;27;20344;-64
2022/07/20 01:44:11;;;;;;;3.72;3.47;;;;;;;;;;5141979;27;20202;-64
2022/07/20 01:46:38;;;;;;;3.80;3.50;;;;;;;;;;5141388;27;20202;-65
2022/07/20 01:49:06;;;;;;;4.38;3.60;;;;;;;;;;5141247;27;20217;-64
2022/07/20 01:51:34;;;;;;;3.78;3.53;;;;;;;;;;5140932;27;20301;-64
2022/07/20 01:54:01;;;;;;;3.80;3.50;;;;;;;;;;5140977;27;20198;-64
2022/07/20 01:56:30;;;;;;;3.65;3.38;;;;;;;;;;5141079;27;20522;-64
2022/07/20 01:58:57;;;;;;;3.60;3.30;;;;;;;;;;5141264;27;20234;-64
2022/07/20 02:01:25;;;;;;;3.70;3.40;;;;;;;;;;5141044;27;20206;-65
2022/07/20 02:03:52;;;;;;;3.78;3.47;;;;;;;;;;5140902;27;20201;-64
2022/07/20 02:06:20;;;;;;;3.55;3.25;;;;;;;;;;5141137;27;20198;-64
2022/07/20 02:08:47;;;;;;;3.85;3.55;;;;;;;;;;5140231;27;20296;-64
2022/07/20 02:11:15;;;;;;;3.28;2.97;;;;;;;;;;5137370;27;20204;-65
2022/07/20 02:13:43;;;;;;;3.70;3.40;;;;;;;;;;5140052;27;20518;-64
2022/07/20 02:16:17;;;;;;;3.85;3.55;;;;;;;;;;5141328;27;20202;-64
2022/07/20 02:18:46;;;;;;;3.60;3.40;;;;;;;;;;5140435;27;20221;-64
2022/07/20 02:21:13;;;;;;;3.72;3.42;;;;;;;;;;5140449;27;20195;-64
2022/07/20 02:23:41;;;;;;;3.72;3.42;;;;;;;;;;5140978;27;20209;-66
2022/07/20 02:26:08;;;;;;;3.92;3.55;;;;;;;;;;5120807;28;20209;-64
2022/07/20 02:28:36;;;;;;;3.50;3.30;;;;;;;;;;5128647;27;20644;-64
2022/07/20 02:31:05;;;;;;;3.80;3.50;;;;;;;;;;5141113;27;20209;-64
2022/07/20 02:33:33;;;;;;;3.88;3.50;;;;;;;;;;5128748;27;20203;-64
2022/07/20 02:36:00;;;;;;;3.75;3.45;;;;;;;;;;5139735;27;20198;-64
2022/07/20 02:38:28;;;;;;;3.38;3.15;;;;;;;;;;5134537;27;20195;-64
2022/07/20 02:40:57;;;;;;;3.40;3.20;;;;;;;;;;5132320;27;20236;-65
2022/07/20 02:43:24;;;;;;;3.60;3.30;;;;;;;;;;5140069;27;20201;-65
2022/07/20 02:45:52;;;;;;;3.30;3.10;;;;;;;;;;5140879;27;20213;-64
2022/07/20 02:48:21;;;;;;;3.58;3.38;;;;;;;;;;5138559;27;20560;-64
2022/07/20 02:50:48;;;;;;;3.40;3.20;;;;;;;;;;5139515;27;20190;-64
2022/07/20 02:53:16;;;;;;;3.58;3.38;;;;;;;;;;5126176;27;20203;-64
2022/07/20 02:55:44;;;;;;;3.50;3.20;;;;;;;;;;5136439;27;20212;-64
2022/07/20 02:58:12;;;;;;;3.63;3.38;;;;;;;;;;5139289;27;20289;-65
2022/07/20 03:00:39;;;;;;;3.35;3.15;;;;;;;;;;5139958;27;20244;-64
2022/07/20 03:03:07;;;;;;;3.90;3.55;;;;;;;;;;5139192;27;20198;-64
2022/07/20 03:05:36;;;;;;;3.95;3.47;;;;;;;;;;5133579;27;20195;-64
2022/07/20 03:08:03;;;;;;;3.78;3.40;;;;;;;;;;5122434;27;20211;-65
2022/07/20 03:10:31;;;;;;;3.50;3.20;;;;;;;;;;5139457;27;20183;-64
2022/07/20 03:12:58;;;;;;;3.75;3.45;;;;;;;;;;5139131;27;20198;-64
2022/07/20 03:15:25;;;;;;;3.60;3.30;;;;;;;;;;5139819;27;20198;-64
2022/07/20 03:17:54;;;;;;;3.60;3.30;;;;;;;;;;5136708;27;20555;-64
2022/07/20 03:20:22;;;;;;;3.33;3.08;;;;;;;;;;5136845;27;20222;-64
2022/07/20 03:22:52;;;;;;;3.42;3.13;;;;;;;;;;5121778;27;20222;-64
2022/07/20 03:25:19;;;;;;;4.47;3.30;;;;;;;;;;5139341;27;20206;-64
2022/07/20 03:27:47;;;;;;;3.70;3.40;;;;;;;;;;5138844;27;20218;-64
2022/07/20 03:30:16;;;;;;;3.60;3.30;;;;;;;;;;5138363;27;20197;-64
2022/07/20 03:32:44;;;;;;;3.83;3.53;;;;;;;;;;5137864;27;20198;-64
2022/07/20 03:35:11;;;;;;;3.55;3.35;;;;;;;;;;5139708;27;20202;-64
2022/07/20 03:37:39;;;;;;;3.55;3.25;;;;;;;;;;5138677;27;20205;-64
2022/07/20 03:40:09;;;;;;;3.70;3.40;;;;;;;;;;5138972;27;20233;-64
2022/07/20 03:42:37;;;;;;;3.80;3.50;;;;;;;;;;5138586;27;20452;-64
2022/07/20 03:45:04;;;;;;;3.80;3.30;;;;;;;;;;5130111;27;20199;-64
2022/07/20 03:47:33;;;;;;;3.83;3.45;;;;;;;;;;5138939;27;20202;-64
2022/07/20 03:50:01;;;;;;;3.80;3.50;;;;;;;;;;5135421;27;20194;-64
2022/07/20 03:52:28;;;;;;;3.53;3.25;;;;;;;;;;5123066;27;20210;-64
2022/07/20 03:54:56;;;;;;;3.63;3.33;;;;;;;;;;5137848;27;20194;-64
2022/07/20 03:57:25;;;;;;;3.88;2.97;;;;;;;;;;5138642;27;20198;-64
2022/07/20 03:59:52;;;;;;;3.55;3.33;;;;;;;;;;5138471;27;20222;-64
2022/07/20 04:02:19;;;;;;;3.90;3.60;;;;;;;;;;5120599;27;20301;-64
2022/07/20 04:04:49;;;;;;;3.55;3.33;;;;;;;;;;5138685;27;20263;-64
2022/07/20 04:07:16;;;;;;;3.30;3.10;;;;;;;;;;5137759;27;20632;-64
2022/07/20 04:09:47;;;;;;;3.90;3.60;;;;;;;;;;5138331;27;20194;-64
2022/07/20 04:12:15;;;;;;;3.90;3.60;;;;;;;;;;5138282;27;20805;-68
2022/07/20 04:14:45;;;;;;;3.70;3.40;;;;;;;;;;5125204;27;20210;-64
2022/07/20 04:17:12;;;;;;;3.70;3.40;;;;;;;;;;5138654;27;20263;-64
2022/07/20 04:19:40;;;;;;;3.70;3.40;;;;;;;;;;5137746;27;20228;-63
2022/07/20 04:22:07;;;;;;;3.80;3.50;;;;;;;;;;5137235;27;20217;-68
2022/07/20 04:24:35;;;;;;;3.63;3.33;;;;;;;;;;5137281;27;20526;-64
2022/07/20 04:27:02;;;;;;;3.60;3.40;;;;;;;;;;5137336;27;20198;-64
2022/07/20 04:29:30;;;;;;;3.40;3.20;;;;;;;;;;5138023;27;20296;-64
2022/07/20 04:31:59;;;;;;;3.92;3.35;;;;;;;;;;5137841;27;20194;-64
2022/07/20 04:34:27;;;;;;;3.42;3.20;;;;;;;;;;5128928;27;20225;-64
2022/07/20 04:36:55;;;;;;;3.35;3.15;;;;;;;;;;5127628;27;20202;-64
2022/07/20 04:39:22;;;;;;;3.42;3.13;;;;;;;;;;5133748;27;20203;-64
2022/07/20 04:41:49;;;;;;;3.58;3.28;;;;;;;;;;5126822;28;20220;-64
2022/07/20 04:44:17;;;;;;;3.53;3.22;;;;;;;;;;5137134;28;20202;-64
2022/07/20 04:46:45;;;;;;;3.45;3.25;;;;;;;;;;5137703;27;20198;-64
2022/07/20 04:49:14;;;;;;;3.63;3.33;;;;;;;;;;5136766;27;20441;-64
2022/07/20 04:51:42;;;;;;;3.83;3.53;;;;;;;;;;5137402;28;20190;-64
2022/07/20 04:54:09;;;;;;;3.97;3.67;;;;;;;;;;5137523;27;20202;-63
2022/07/20 04:56:37;;;;;;;3.97;3.55;;;;;;;;;;5136713;28;20480;-64
2022/07/20 04:59:05;;;;;;;3.70;3.40;;;;;;;;;;5136348;28;20198;-64
2022/07/20 05:01:32;;;;;;;3.45;3.25;;;;;;;;;;5137906;27;20218;-63
2022/07/20 05:03:59;;;;;;;3.67;3.30;;;;;;;;;;5141760;27;20202;-64
2022/07/20 05:06:28;;;;;;;4.03;3.63;;;;;;;;;;5141552;27;20205;-64
2022/07/20 05:08:56;;;;;;;3.35;3.13;;;;;;;;;;5140661;27;20234;-64
2022/07/20 05:11:26;;;;;;;3.70;3.40;;;;;;;;;;5134414;27;20198;-64
2022/07/20 05:13:54;;;;;;;3.60;3.30;;;;;;;;;;5122247;27;20211;-63
2022/07/20 05:16:21;;;;;;;3.60;3.30;;;;;;;;;;5140612;27;20559;-63
2022/07/20 05:18:48;;;;;;;3.75;3.45;;;;;;;;;;5141306;27;20530;-64
2022/07/20 05:21:16;;;;;;;3.45;3.25;;;;;;;;;;5140215;27;20473;-63
2022/07/20 05:23:45;;;;;;;3.70;3.40;;;;;;;;;;5141067;27;20202;-63
2022/07/20 05:26:12;;;;;;;3.63;3.33;;;;;;;;;;5140293;27;20202;-64
2022/07/20 05:28:41;;;;;;;3.53;3.22;;;;;;;;;;5140804;27;20243;-64
2022/07/20 05:31:09;;;;;;;3.88;3.58;;;;;;;;;;5140087;27;20273;-64
2022/07/20 05:33:36;;;;;;;3.67;3.40;;;;;;;;;;5138795;27;20265;-64
2022/07/20 05:36:04;;;;;;;3.63;3.33;;;;;;;;;;5140526;27;20191;-64
2022/07/20 05:38:32;;;;;;;3.75;3.45;;;;;;;;;;5141072;27;20608;-64
2022/07/20 05:41:00;;;;;;;3.88;3.50;;;;;;;;;;5140283;27;20217;-64
2022/07/20 05:43:28;;;;;;;3.80;3.60;;;;;;;;;;5139601;27;20220;-63
2022/07/20 05:45:55;;;;;;;3.90;3.60;;;;;;;;;;5138814;27;20204;-64
2022/07/20 05:48:23;;;;;;;3.88;3.58;;;;;;;;;;5139091;27;20281;-64
2022/07/20 05:50:50;;;;;;;3.65;3.40;;;;;;;;;;5130425;27;20191;-64
2022/07/20 05:53:18;;;;;;;3.60;3.40;;;;;;;;;;5118880;28;20301;-64
2022/07/20 05:55:46;;;;;;;3.53;3.33;;;;;;;;;;5134139;27;20288;-64
2022/07/20 05:58:15;;;;;;;9.15;3.28;;;;;;;;;;5140421;27;20487;-64
2022/07/20 06:00:42;;;;;;;3.60;3.40;;;;;;;;;;5139054;27;20222;-64
2022/07/20 06:03:10;;;;;;;3.88;3.60;;;;;;;;;;5139674;27;20213;-63
2022/07/20 06:05:38;;;;;;;3.40;3.20;;;;;;;;;;5138675;27;20191;-64
2022/07/20 06:08:05;;;;;;;3.85;3.55;;;;;;;;;;5138750;27;20520;-65
2022/07/20 06:10:34;;;;;;;4.35;3.95;;;;;;;;;;5139935;27;20221;-64
2022/07/20 06:13:01;;;;;;;4.43;3.97;;;;;;;;;;5133941;27;20203;-64
2022/07/20 06:15:30;;;;;;;4.97;4.55;;;;;;;;;;5134148;27;20205;-64
2022/07/20 06:17:58;;;;;;;5.18;4.70;;;;;;;;;;5139732;27;20205;-64
2022/07/20 06:20:27;;;;;;;5.25;4.80;;;;;;;;;;5138933;27;20222;-64
2022/07/20 06:22:54;;;;;;;5.30;4.90;;;;;;;;;;5138794;27;20317;-64
2022/07/20 06:25:22;;;;;;;5.70;5.13;;;;;;;;;;5138996;27;20198;-64
2022/07/20 06:27:49;;;;;;;5.70;5.10;;;;;;;;;;5139095;27;20230;-64
2022/07/20 06:30:16;;;;;;;5.20;4.70;;;;;;;;;;5139092;27;20216;-64
2022/07/20 06:32:45;;;;;;;5.20;4.80;;;;;;;;;;5138877;27;20243;-64
2022/07/20 06:35:13;;;;;;;5.32;4.68;;;;;;;;;;5137655;27;20285;-65
2022/07/20 06:37:40;;;;;;;5.40;4.90;;;;;;;;;;5139090;27;20270;-64
2022/07/20 06:40:08;;;;;;;5.20;4.80;;;;;;;;;;5138204;27;20198;-64
2022/07/20 06:42:36;;;;;;;5.07;4.57;;;;;;;;;;5138067;27;20238;-64
2022/07/20 06:45:03;;;;;;;4.97;4.50;;;;;;;;;;5138359;27;20494;-63
2022/07/20 06:47:31;;;;;;;5.45;4.90;;;;;;;;;;5137080;27;20208;-64
2022/07/20 06:50:00;;;;;;;5.00;4.35;;;;;;;;;;5137884;27;20198;-64
2022/07/20 06:52:29;;;;;;;5.28;4.78;;;;;;;;;;5138185;27;20289;-64
2022/07/20 06:54:57;;;;;;;5.18;4.68;;;;;;;;;;5137382;27;20259;-64
2022/07/20 06:57:24;;;;;;;4.50;4.10;;;;;;;;;;5138914;27;20292;-64
2022/07/20 06:59:52;;;;;;;5.07;4.68;;;;;;;;;;5137087;27;20289;-64
2022/07/20 07:02:19;;;;;;;4.82;4.43;;;;;;;;;;5136300;27;20225;-65
2022/07/20 07:04:48;;;;;;;4.75;4.32;;;;;;;;;;5124611;27;20195;-64
2022/07/20 07:07:17;;;;;;;4.80;4.30;;;;;;;;;;5137367;27;20556;-64
2022/07/20 07:09:44;;;;;;;4.70;4.25;;;;;;;;;;5137347;27;20434;-65
2022/07/20 07:12:12;;;;;;;4.65;3.97;;;;;;;;;;5137803;27;20218;-65
2022/07/20 07:14:39;;;;;;;5.53;4.40;;;;;;;;;;5120544;27;20633;-64
2022/07/20 07:17:07;;;;;;;4.57;4.18;;;;;;;;;;5136177;27;20195;-64
2022/07/20 07:19:34;;;;;;;4.32;3.70;;;;;;;;;;5137824;27;20755;-65
2022/07/20 07:22:02;;;;;;;4.07;3.78;;;;;;;;;;5125393;27;20306;-64
2022/07/20 07:24:31;;;;;;;4.10;3.80;;;;;;;;;;5133100;27;20282;-66
2022/07/20 07:26:58;;;;;;;4.13;3.70;;;;;;;;;;5129031;27;20203;-64
2022/07/20 07:29:26;;;;;;;3.83;3.53;;;;;;;;;;5137363;27;20246;-64
2022/07/20 07:31:58;;;;;;;4.20;3.80;;;;;;;;;;5133981;27;20281;-64
2022/07/20 07:34:26;;;;;;;4.10;3.70;;;;;;;;;;5124000;27;20203;-64
2022/07/20 07:36:53;;;;;;;4.03;3.72;;;;;;;;;;5137418;27;20297;-64
2022/07/20 07:39:21;;;;;;;4.00;3.60;;;;;;;;;;5137071;27;20609;-64
2022/07/20 07:41:50;;;;;;;3.60;3.35;;;;;;;;;;5136919;27;20222;-65
2022/07/20 07:44:17;;;;;;;3.50;3.20;;;;;;;;;;5136659;27;20190;-65
2022/07/20 07:46:45;;;;;;;3.53;3.13;;;;;;;;;;5137016;27;20209;-65
2022/07/20 07:49:12;;;;;;;3.60;3.30;;;;;;;;;;5137105;27;20195;-64
2022/07/20 07:51:40;;;;;;;3.90;3.50;;;;;;;;;;5137052;27;20295;-65
2022/07/20 07:54:08;;;;;;;3.67;3.15;;;;;;;;;;5136931;27;20198;-64
2022/07/20 07:56:36;;;;;;;4.22;3.83;;;;;;;;;;5137271;27;20198;-64
2022/07/20 07:59:05;;;;;;;3.60;3.30;;;;;;;;;;5137291;27;20233;-64
2022/07/20 08:01:34;;;;;;;4.22;3.17;;;;;;;;;;5137305;27;20232;-65
2022/07/20 08:04:01;;;;;;;3.38;3.08;;;;;;;;;;5136837;27;20206;-65
2022/07/20 08:06:29;;;;;;;3.20;2.88;;;;;;;;;;5136372;27;20198;-64
2022/07/20 08:08:57;;;;;;;3.20;3.00;;;;;;;;;;5137589;27;20305;-64
2022/07/20 08:11:24;;;;;;;3.20;3.00;;;;;;;;;;5136614;27;20190;-64
2022/07/20 08:13:53;;;;;;;3.38;3.08;;;;;;;;;;5136571;27;20202;-64
2022/07/20 08:16:22;;;;;;;4.05;2.85;;;;;;;;;;5130767;27;20199;-64
2022/07/20 08:18:49;;;;;;;2.97;2.75;;;;;;;;;;5126167;27;20649;-64
2022/07/20 08:21:17;;;;;;;3.03;2.72;;;;;;;;;;5123259;27;20282;-64
2022/07/20 08:23:45;;;;;;;4.35;2.90;;;;;;;;;;5137053;27;20222;-65
2022/07/20 08:26:12;;;;;;;3.25;2.97;;;;;;;;;;5135751;27;20209;-64
2022/07/20 08:28:40;;;;;;;3.03;2.80;;;;;;;;;;5135650;27;20780;-65
2022/07/20 08:31:08;;;;;;;3.00;2.70;;;;;;;;;;5129658;27;20226;-64
2022/07/20 08:33:36;;;;;;;3.90;2.95;;;;;;;;;;5123752;27;20198;-65
2022/07/20 08:36:05;;;;;;;3.20;3.00;;;;;;;;;;5134421;27;20509;-64
2022/07/20 08:38:32;;;;;;;3.17;2.88;;;;;;;;;;5122581;27;20482;-65
2022/07/20 08:41:00;;;;;;;4.85;2.90;;;;;;;;;;5133340;27;20289;-64
2022/07/20 08:43:29;;;;;;;2.90;2.70;;;;;;;;;;5139480;27;20204;-64
2022/07/20 08:45:57;;;;;;;2.67;2.47;;;;;;;;;;5133380;27;20198;-65
2022/07/20 08:48:25;;;;;;;10.80;2.70;;;;;;;;;;5134715;27;20198;-64
2022/07/20 08:50:54;;;;;;;3.60;3.08;;;;;;;;;;5134298;28;20195;-65
2022/07/20 08:53:22;;;;;;;3.92;2.83;;;;;;;;;;5135645;28;20497;-66
2022/07/20 08:55:49;;;;;;;3.03;2.55;;;;;;;;;;5135990;28;20204;-65
2022/07/20 08:58:17;;;;;;;8.50;2.90;;;;;;;;;;5128958;28;20199;-64
2022/07/20 09:00:44;;;;;;;4.20;2.88;;;;;;;;;;5132806;28;20198;-64
2022/07/20 09:03:12;;;;;;;3.28;2.65;;;;;;;;;;5135380;27;20261;-64
2022/07/20 09:05:41;;;;;;;3.55;2.83;;;;;;;;;;5136036;27;20321;-64
2022/07/20 09:08:12;;;;;;;4.65;2.70;;;;;;;;;;5136698;28;20259;-64
2022/07/20 09:10:43;;;;;;;3.60;2.65;;;;;;;;;;5135812;27;20294;-64
2022/07/20 09:13:13;;;;;;;4.53;2.67;;;;;;;;;;5136822;27;20292;-64
2022/07/20 09:15:42;;;;;;;3.72;2.60;;;;;;;;;;5135805;27;20230;-64
2022/07/20 09:18:12;;;;;;;2.95;2.75;;;;;;;;;;5133581;28;20527;-64
2022/07/20 09:20:40;;;;;;;2.67;2.47;;;;;;;;;;5123271;28;20641;-65
2022/07/20 09:23:09;;;;;;;3.85;2.55;;;;;;;;;;5135895;28;20222;-65
2022/07/20 09:25:38;;;;;;;3.72;2.50;;;;;;;;;;5135150;28;20211;-65
2022/07/20 09:28:06;;;;;;;2.60;2.40;;;;;;;;;;5136485;27;20329;-65
2022/07/20 09:30:34;;;;;;;2.80;2.60;;;;;;;;;;5135277;28;20207;-65
2022/07/20 09:33:03;;;;;;;2.55;2.42;;;;;;;;;;5133906;28;20289;-65
2022/07/20 09:35:32;;;;;;;3.08;2.60;;;;;;;;;;5134236;28;20190;-65
2022/07/20 09:38:00;;;;;;;3.15;2.63;;;;;;;;;;5135576;27;20305;-65
2022/07/20 09:40:28;;;;;;;2.60;2.40;;;;;;;;;;5134958;27;20292;-65
2022/07/20 09:42:57;;;;;;;2.85;2.65;;;;;;;;;;5134953;27;20252;-65
2022/07/20 09:45:27;;;;;;;3.00;2.65;;;;;;;;;;5135094;28;20323;-65
2022/07/20 09:48:21;;;;;;;2.90;2.55;;;;;;;;;;5133836;27;20205;-65
2022/07/20 09:50:49;;;;;;;2.70;2.50;;;;;;;;;;5137232;27;20209;-65
2022/07/20 09:53:16;;;;;;;3.28;2.70;;;;;;;;;;5139269;27;20595;-65
2022/07/20 09:55:44;;;;;;;3.00;2.67;;;;;;;;;;5138874;27;20251;-65
2022/07/20 09:58:13;;;;;;;2.50;2.30;;;;;;;;;;5139497;27;20557;-65
2022/07/20 10:00:41;;;;;;;3.08;2.40;;;;;;;;;;5138385;27;20194;-65
2022/07/20 10:03:08;;;;;;;3.08;2.28;;;;;;;;;;5118573;28;20233;-65
2022/07/20 10:05:37;;;;;;;3.05;2.80;;;;;;;;;;5134094;27;20277;-65
2022/07/20 10:08:05;;;;;;;3.28;2.55;;;;;;;;;;5138763;27;20202;-65
2022/07/20 10:10:33;;;;;;;2.90;2.38;;;;;;;;;;5138914;27;20236;-65
2022/07/20 10:13:01;;;;;;;3.13;2.83;;;;;;;;;;5138622;27;20202;-65
2022/07/20 10:15:39;;;;;;;2.72;2.53;;;;;;;;;;5138035;27;20324;-64
2022/07/20 10:18:09;;;;;;;3.72;2.58;;;;;;;;;;5127162;27;20294;-65
2022/07/20 10:20:37;;;;;;;2.80;2.60;;;;;;;;;;5125773;27;20290;-65
2022/07/20 10:23:23;;;;;;;3.17;2.67;;;;;;;;;;5138800;27;20312;-65
2022/07/20 10:25:50;;;;;;;3.22;2.50;;;;;;;;;;5138044;27;20205;-65
2022/07/20 10:28:32;;;;;;;2.42;2.22;;;;;;;;;;5136602;27;20230;-65
2022/07/20 10:31:02;;;;;;;2.90;2.65;;;;;;;;;;5137591;27;20510;-65
2022/07/20 10:33:31;;;;;;;2.58;2.35;;;;;;;;;;5138460;27;20202;-64
2022/07/20 10:38:54;;;;;;;3.28;2.97;;;;;;;;;;5118019;27;20507;-65
2022/07/20 10:41:36;;;;;;;2.95;2.65;;;;;;;;;;5138002;27;20300;-65
2022/07/20 10:44:18;;;;;;;2.63;2.40;;;;;;;;;;5137348;27;20199;-65
2022/07/20 10:46:47;;;;;;;3.42;2.50;;;;;;;;;;5115653;27;20190;-71
2022/07/20 10:49:15;;;;;;;2.60;2.40;;;;;;;;;;5137427;27;20264;-64
2022/07/20 10:51:43;;;;;;;3.25;2.78;;;;;;;;;;5137556;27;20190;-65
2022/07/20 10:54:29;;;;;;;2.70;2.50;;;;;;;;;;5137461;27;20670;-65
2022/07/20 10:56:56;;;;;;;2.97;2.78;;;;;;;;;;5137695;27;20301;-65
2022/07/20 10:59:24;;;;;;;3.45;2.70;;;;;;;;;;5137658;27;20222;-64
2022/07/20 11:01:53;;;;;;;2.78;2.42;;;;;;;;;;5138182;27;20313;-65
2022/07/20 11:04:21;;;;;;;2.63;2.42;;;;;;;;;;5136175;27;20289;-65
2022/07/20 11:06:49;;;;;;;3.10;2.80;;;;;;;;;;5137668;27;20198;-64
2022/07/20 11:09:17;;;;;;;3.22;2.90;;;;;;;;;;5136641;27;20191;-65
2022/07/20 11:11:44;;;;;;;3.17;2.80;;;;;;;;;;5136901;27;20282;-65
2022/07/20 11:14:11;;;;;;;3.00;2.70;;;;;;;;;;5136116;27;20195;-65
2022/07/20 11:16:39;;;;;;;3.28;2.78;;;;;;;;;;5136401;27;20713;-65
2022/07/20 11:19:08;;;;;;;2.88;2.63;;;;;;;;;;5137447;27;20623;-65
2022/07/20 11:21:38;;;;;;;2.80;2.50;;;;;;;;;;5135996;27;20609;-65
2022/07/20 11:24:06;;;;;;;2.88;2.67;;;;;;;;;;5135115;27;20209;-65
2022/07/20 11:26:33;;;;;;;2.63;2.42;;;;;;;;;;5136710;27;20198;-65
2022/07/20 11:29:01;;;;;;;3.00;2.70;;;;;;;;;;5136444;27;20528;-64
2022/07/20 11:31:29;;;;;;;3.13;2.88;;;;;;;;;;5137425;27;20206;-65
2022/07/20 11:33:58;;;;;;;2.92;2.72;;;;;;;;;;5135841;27;20198;-65
2022/07/20 11:36:29;;;;;;;2.80;2.60;;;;;;;;;;5136997;27;20198;-65
2022/07/20 11:38:58;;;;;;;3.53;2.75;;;;;;;;;;5136870;27;20288;-65
2022/07/20 11:41:33;;;;;;;3.22;2.53;;;;;;;;;;5136982;27;20566;-65
2022/07/20 11:44:01;;;;;;;3.25;2.95;;;;;;;;;;5137101;27;20613;-65
2022/07/20 11:46:29;;;;;;;3.03;2.75;;;;;;;;;;5136700;27;20297;-65
2022/07/20 11:48:58;;;;;;;3.00;2.70;;;;;;;;;;5136200;27;20764;-65
2022/07/20 11:51:26;;;;;;;3.03;2.70;;;;;;;;;;5134788;27;20222;-66
2022/07/20 11:53:55;;;;;;;3.10;2.88;;;;;;;;;;5136488;27;20205;-65
2022/07/20 11:56:23;;;;;;;2.78;2.58;;;;;;;;;;5135567;27;20206;-65
2022/07/20 11:58:51;;;;;;;2.88;2.60;;;;;;;;;;5136914;27;20210;-64
2022/07/20 12:01:20;;;;;;;2.78;2.42;;;;;;;;;;5136014;27;20242;-65
2022/07/20 12:03:49;;;;;;;2.97;2.75;;;;;;;;;;5137480;27;20314;-65
2022/07/20 12:06:17;;;;;;;3.42;2.70;;;;;;;;;;5136503;27;20220;-64
2022/07/20 12:08:44;;;;;;;2.90;2.70;;;;;;;;;;5136504;27;20198;-65
2022/07/20 12:11:13;;;;;;;2.63;2.42;;;;;;;;;;5134549;27;20206;-65
2022/07/20 12:13:49;;;;;;;3.13;2.83;;;;;;;;;;5137213;27;20205;-65
2022/07/20 12:16:18;;;;;;;2.75;2.55;;;;;;;;;;5135892;27;20202;-64
2022/07/20 12:18:47;;;;;;;2.90;2.70;;;;;;;;;;5137296;27;20293;-65
2022/07/20 12:21:15;;;;;;;2.75;2.50;;;;;;;;;;5135905;27;20491;-64
2022/07/20 12:23:44;;;;;;;3.22;2.80;;;;;;;;;;5136131;27;20214;-65
2022/07/20 12:26:24;;;;;;;2.85;2.53;;;;;;;;;;5137016;27;20297;-65
2022/07/20 12:28:52;;;;;;;3.28;2.70;;;;;;;;;;5136420;27;20241;-65
2022/07/20 12:31:20;;;;;;;3.10;2.80;;;;;;;;;;5135001;27;20205;-66
2022/07/20 12:34:02;;;;;;;3.10;2.80;;;;;;;;;;5134726;27;20281;-65
2022/07/20 12:36:33;;;;;;;2.80;2.60;;;;;;;;;;5135178;27;20304;-65
2022/07/20 12:39:01;;;;;;;2.90;2.70;;;;;;;;;;5135434;27;20204;-65
2022/07/20 12:41:30;;;;;;;3.13;2.53;;;;;;;;;;5134939;27;20232;-65
2022/07/20 12:43:58;;;;;;;3.35;2.75;;;;;;;;;;5115250;28;20317;-65
2022/07/20 12:46:26;;;;;;;3.45;3.10;;;;;;;;;;5135668;27;20198;-65
2022/07/20 12:48:53;;;;;;;2.92;2.70;;;;;;;;;;5134483;27;20203;-65
2022/07/20 12:51:20;;;;;;;3.67;2.83;;;;;;;;;;5136555;28;20239;-65
2022/07/20 12:53:49;;;;;;;2.83;2.58;;;;;;;;;;5135264;27;20540;-65
2022/07/20 12:56:17;;;;;;;3.25;2.80;;;;;;;;;;5133720;27;20198;-65
2022/07/20 12:58:46;;;;;;;2.80;2.55;;;;;;;;;;5135079;27;20199;-65
2022/07/20 13:01:14;;;;;;;2.90;2.70;;;;;;;;;;5134383;27;20204;-65
2022/07/20 13:03:42;;;;;;;3.30;2.80;;;;;;;;;;5135938;27;20249;-65
2022/07/20 13:06:09;;;;;;;3.00;2.80;;;;;;;;;;5135071;27;20293;-65
2022/07/20 13:08:37;;;;;;;4.03;2.97;;;;;;;;;;5136345;27;20245;-65
2022/07/20 13:11:04;;;;;;;3.08;2.88;;;;;;;;;;5135709;28;20197;-65
2022/07/20 13:13:32;;;;;;;5.43;3.17;;;;;;;;;;5135252;27;20202;-65
2022/07/20 13:16:01;;;;;;;2.85;2.65;;;;;;;;;;5117152;28;20284;-65
2022/07/20 13:18:28;;;;;;;2.95;2.75;;;;;;;;;;5135368;28;20213;-65
2022/07/20 13:20:56;;;;;;;3.55;2.78;;;;;;;;;;5133698;28;20654;-65
2022/07/20 13:23:24;;;;;;;2.83;2.60;;;;;;;;;;5138440;27;20507;-65
2022/07/20 13:25:51;;;;;;;3.45;2.60;;;;;;;;;;5138972;27;20202;-65
2022/07/20 13:28:20;;;;;;;3.10;2.80;;;;;;;;;;5138805;27;20222;-65
2022/07/20 13:30:48;;;;;;;3.35;2.78;;;;;;;;;;5138080;27;20206;-65
2022/07/20 13:33:17;;;;;;;3.20;2.90;;;;;;;;;;5137742;27;20202;-65
2022/07/20 13:35:44;;;;;;;3.15;2.85;;;;;;;;;;5139705;27;20202;-65
2022/07/20 13:38:12;;;;;;;2.83;2.63;;;;;;;;;;5139079;27;20202;-65
2022/07/20 13:40:39;;;;;;;2.83;2.63;;;;;;;;;;5139174;27;20255;-65
2022/07/20 13:43:07;;;;;;;3.45;2.75;;;;;;;;;;5140119;27;20571;-65
2022/07/20 13:45:34;;;;;;;2.90;2.40;;;;;;;;;;5139386;27;20202;-66
2022/07/20 13:48:02;;;;;;;4.03;2.80;;;;;;;;;;5130665;27;20208;-65
2022/07/20 13:50:32;;;;;;;2.75;2.50;;;;;;;;;;5139743;27;20198;-65
2022/07/20 13:52:59;;;;;;;2.88;2.67;;;;;;;;;;5139755;27;20198;-65
2022/07/20 13:55:26;;;;;;;3.40;2.50;;;;;;;;;;5139335;27;20202;-65
2022/07/20 13:57:54;;;;;;;3.75;2.90;;;;;;;;;;5139668;27;20328;-66
2022/07/20 14:00:22;;;;;;;3.05;2.75;;;;;;;;;;5139613;27;20213;-65
2022/07/20 14:02:49;;;;;;;2.72;2.53;;;;;;;;;;5139819;27;20218;-66
2022/07/20 14:05:17;;;;;;;3.05;2.53;;;;;;;;;;5138789;27;20302;-66
2022/07/20 14:07:45;;;;;;;3.00;2.80;;;;;;;;;;5138739;27;20569;-65
2022/07/20 14:10:13;;;;;;;2.60;2.40;;;;;;;;;;5139335;27;20206;-65
2022/07/20 14:12:41;;;;;;;3.53;2.90;;;;;;;;;;5138936;27;20292;-65
2022/07/20 14:15:09;;;;;;;3.63;2.60;;;;;;;;;;5139040;27;20336;-65
2022/07/20 14:17:37;;;;;;;3.13;2.85;;;;;;;;;;5139634;27;20203;-65
2022/07/20 14:20:06;;;;;;;2.95;2.65;;;;;;;;;;5138471;27;20213;-65
2022/07/20 14:22:33;;;;;;;2.95;2.30;;;;;;;;;;5139083;27;20301;-65
2022/07/20 14:25:03;;;;;;;2.70;2.50;;;;;;;;;;5138571;27;20285;-64
2022/07/20 14:27:30;;;;;;;4.05;2.75;;;;;;;;;;5138756;27;20638;-65
2022/07/20 14:29:58;;;;;;;3.03;2.58;;;;;;;;;;5138313;27;20206;-66
2022/07/20 14:32:26;;;;;;;3.50;2.70;;;;;;;;;;5138011;27;20230;-65
2022/07/20 14:34:53;;;;;;;3.05;2.55;;;;;;;;;;5137492;27;20209;-65
2022/07/20 14:37:20;;;;;;;2.65;2.45;;;;;;;;;;5138775;27;20202;-66
2022/07/20 14:39:48;;;;;;;3.28;2.40;;;;;;;;;;5138074;27;20233;-65
2022/07/20 14:42:16;;;;;;;2.80;2.40;;;;;;;;;;5137888;27;20442;-65
2022/07/20 14:44:44;;;;;;;2.75;2.40;;;;;;;;;;5137631;27;20321;-65
2022/07/20 14:47:12;;;;;;;2.42;2.22;;;;;;;;;;5138141;27;20213;-65
2022/07/20 14:49:39;;;;;;;3.58;2.85;;;;;;;;;;5138311;27;20263;-65
2022/07/20 14:52:07;;;;;;;2.72;2.40;;;;;;;;;;5138479;27;20304;-65
2022/07/20 14:54:34;;;;;;;3.20;2.92;;;;;;;;;;5138467;27;20204;-65